Weather at Questa Park Airport

Public forecast

Using degrees Celsius for public forecast. Weather courtesy of forecast.io.

Closest aviation weather report (METAR) to Questa Park Airport

Closest report is Broken Hill Airport, 129.2 nm (239.3 km) SW. Retrieved 2021/06/13 16:00 UTC (38 minutes ago):

YBHI 131600Z AUTO 05007KT 9999 // SCT097 OVC115 11/04 Q1014

Closest aviation forecast (TAF) to Questa Park Airport

Closest forecast is Dubbo City Regional Airport, 299.4 nm (554.5 km) ESE. Retrieved 2021/06/13 12:36 UTC (4 hours ago):

TAF YSDU 131057Z 1312/1406 VRB03KT 9999 BKN040 FM131800 16005KT 9999 SCT040